createdAt,value
2022-10-14T00:01:24.105Z,100496.75
2022-10-14T00:04:03.729Z,100498.59
2022-10-14T00:06:34.125Z,100498.59
2022-10-14T00:09:06.714Z,100493.94
2022-10-14T00:11:36.824Z,100500.09
2022-10-14T00:14:14.836Z,100494.63
2022-10-14T00:16:46.043Z,100493.00
2022-10-14T00:19:15.382Z,100487.53
2022-10-14T00:21:45.208Z,100488.69
2022-10-14T00:24:17.104Z,100475.53
2022-10-14T00:26:45.321Z,100475.91
2022-10-14T00:29:20.420Z,100479.75
2022-10-14T00:31:49.159Z,100477.00
2022-10-14T00:34:16.660Z,100471.94
2022-10-14T00:36:44.648Z,100468.13
2022-10-14T00:39:17.265Z,100463.84
2022-10-14T00:41:45.538Z,100458.44
2022-10-14T00:44:15.961Z,100464.63
2022-10-14T00:46:50.647Z,100459.22
2022-10-14T00:49:33.598Z,100457.31
2022-10-14T00:52:10.949Z,100458.88
2022-10-14T00:54:53.212Z,100457.75
2022-10-14T00:57:24.676Z,100455.03
2022-10-14T00:59:56.852Z,100457.31
2022-10-14T01:02:24.581Z,100456.53
2022-10-14T01:04:52.421Z,100446.44
2022-10-14T01:08:14.000Z,100453.41
2022-10-14T01:11:14.416Z,100451.06
2022-10-14T01:13:50.827Z,100442.56
2022-10-14T01:17:06.326Z,100436.75
2022-10-14T01:20:15.285Z,100446.38
2022-10-14T01:23:46.991Z,100440.91
2022-10-14T01:26:34.384Z,100432.41
2022-10-14T01:32:51.159Z,100433.91
2022-10-14T01:35:51.873Z,100432.34
2022-10-14T01:38:30.499Z,100425.31
2022-10-14T01:41:25.876Z,100433.06
2022-10-14T01:43:58.516Z,100428.38
2022-10-14T01:46:29.531Z,100421.44
2022-10-14T01:49:04.504Z,100422.97
2022-10-14T01:51:44.138Z,100426.84
2022-10-14T01:54:22.310Z,100427.97
2022-10-14T01:56:53.476Z,100417.53
2022-10-14T01:59:40.412Z,100421.72
2022-10-14T02:02:08.468Z,100416.69
2022-10-14T02:04:35.937Z,100424.38
2022-10-14T02:07:33.680Z,100416.28
2022-10-14T02:10:22.168Z,100410.44
2022-10-14T02:13:26.394Z,100411.94
2022-10-14T02:16:00.054Z,100416.56
2022-10-14T02:18:45.561Z,100412.31
2022-10-14T02:21:37.261Z,100416.47
2022-10-14T02:24:14.508Z,100408.38
2022-10-14T02:26:44.336Z,100406.50
2022-10-14T02:29:12.412Z,100409.97
2022-10-14T02:31:43.499Z,100408.38
2022-10-14T02:34:18.780Z,100403.44
2022-10-14T02:36:47.758Z,100405.78
2022-10-14T02:39:27.927Z,100402.28
2022-10-14T02:41:57.964Z,100415.78
2022-10-14T02:44:25.790Z,100406.91
2022-10-14T02:46:56.365Z,100410.03
2022-10-14T02:49:23.873Z,100409.66
2022-10-14T02:51:51.598Z,100403.84
2022-10-14T02:54:19.130Z,100409.66
2022-10-14T02:56:46.680Z,100409.25
2022-10-14T02:59:14.388Z,100411.16
2022-10-14T03:01:41.955Z,100406.13
2022-10-14T03:04:10.878Z,100410.38
2022-10-14T03:06:40.517Z,100411.53
2022-10-14T03:09:08.967Z,100414.22
2022-10-14T03:11:40.474Z,100411.09
2022-10-14T03:14:13.427Z,100409.53
2022-10-14T03:16:42.971Z,100409.13
2022-10-14T03:19:15.391Z,100408.78
2022-10-14T03:21:49.178Z,100404.16
2022-10-14T03:24:20.477Z,100407.97
2022-10-14T03:26:55.922Z,100400.69
2022-10-14T03:29:26.415Z,100393.34
2022-10-14T03:32:13.378Z,100399.88
2022-10-14T03:34:59.140Z,100397.97
2022-10-14T03:37:27.693Z,100393.72
2022-10-14T03:39:58.483Z,100393.34
2022-10-14T03:42:26.108Z,100404.16
2022-10-14T03:44:54.114Z,100388.38
2022-10-14T03:47:26.615Z,100387.25
2022-10-14T03:49:54.665Z,100392.28
2022-10-14T03:52:33.863Z,100388.78
2022-10-14T03:55:07.961Z,100391.06
2022-10-14T03:57:35.864Z,100391.06
2022-10-14T04:00:07.888Z,100398.75
2022-10-14T04:02:44.251Z,100391.72
2022-10-14T04:05:34.015Z,100394.78
2022-10-14T04:08:08.262Z,100388.53
2022-10-14T04:10:37.663Z,100395.06
2022-10-14T04:13:05.220Z,100391.59
2022-10-14T04:15:39.531Z,100386.97
2022-10-14T04:18:15.586Z,100384.28
2022-10-14T04:20:44.686Z,100392.38
2022-10-14T04:23:14.838Z,100400.81
2022-10-14T04:25:45.741Z,100391.25
2022-10-14T04:28:14.060Z,100387.38
2022-10-14T04:30:50.033Z,100381.22
2022-10-14T04:33:23.405Z,100390.09
2022-10-14T04:35:51.746Z,100387.84
2022-10-14T04:38:27.420Z,100384.00
2022-10-14T04:41:00.605Z,100388.25
2022-10-14T04:43:30.350Z,100382.50
2022-10-14T04:46:06.255Z,100391.38
2022-10-14T04:48:34.529Z,100379.81
2022-10-14T04:51:02.853Z,100384.84
2022-10-14T04:53:47.023Z,100383.28
2022-10-14T04:56:30.283Z,100392.94
2022-10-14T04:59:02.455Z,100384.84
2022-10-14T05:01:51.670Z,100392.59
2022-10-14T05:04:20.107Z,100393.34
2022-10-14T05:06:49.503Z,100384.91
2022-10-14T05:09:19.828Z,100387.25
2022-10-14T05:11:47.493Z,100388.50
2022-10-14T05:14:19.354Z,100389.78
2022-10-14T05:16:50.176Z,100390.59
2022-10-14T05:19:25.019Z,100391.81
2022-10-14T05:21:54.556Z,100384.19
2022-10-14T05:24:34.356Z,100390.88
2022-10-14T05:27:03.235Z,100385.56
2022-10-14T05:29:32.022Z,100391.38
2022-10-14T05:32:00.827Z,100382.56
2022-10-14T05:34:36.073Z,100394.19
2022-10-14T05:37:05.671Z,100388.09
2022-10-14T05:39:41.246Z,100388.19
2022-10-14T05:42:09.285Z,100387.47
2022-10-14T05:44:37.722Z,100382.91
2022-10-14T05:47:05.570Z,100385.75
2022-10-14T05:49:33.761Z,100379.19
2022-10-14T05:52:04.585Z,100391.59
2022-10-14T05:54:33.739Z,100390.13
2022-10-14T05:57:04.061Z,100393.69
2022-10-14T05:59:33.442Z,100394.16
2022-10-14T06:02:02.178Z,100396.53
2022-10-14T06:04:30.041Z,100395.50
2022-10-14T06:06:58.925Z,100402.16
2022-10-14T06:09:26.719Z,100405.31
2022-10-14T06:11:54.551Z,100415.03
2022-10-14T06:14:22.991Z,100421.72
2022-10-14T06:16:52.749Z,100419.88
2022-10-14T06:19:20.629Z,100425.00
2022-10-14T06:21:48.537Z,100426.28
2022-10-14T06:24:16.342Z,100427.53
2022-10-14T06:26:44.111Z,100424.53
2022-10-14T06:29:11.680Z,100419.25
2022-10-14T06:31:39.299Z,100428.66
2022-10-14T06:34:07.276Z,100431.03
2022-10-14T06:36:35.451Z,100432.19
2022-10-14T06:39:04.669Z,100425.69
2022-10-14T06:41:33.046Z,100431.13
2022-10-14T06:44:00.578Z,100426.50
2022-10-14T06:46:28.170Z,100425.44
2022-10-14T06:48:55.901Z,100425.91
2022-10-14T06:51:23.401Z,100419.81
2022-10-14T06:53:50.966Z,100417.94
2022-10-14T06:56:18.779Z,100419.13
2022-10-14T06:58:46.241Z,100419.88
2022-10-14T07:01:13.918Z,100413.28
2022-10-14T07:03:42.374Z,100412.88
2022-10-14T07:06:10.503Z,100414.44
2022-10-14T07:08:38.148Z,100412.91
2022-10-14T07:11:06.463Z,100412.91
2022-10-14T07:13:34.714Z,100412.88
2022-10-14T07:16:02.468Z,100415.22
2022-10-14T07:18:30.925Z,100419.91
2022-10-14T07:21:06.191Z,100422.22
2022-10-14T07:23:34.129Z,100417.22
2022-10-14T07:26:02.327Z,100421.50
2022-10-14T07:28:30.061Z,100420.72
2022-10-14T07:31:10.060Z,100419.19
2022-10-14T07:33:40.191Z,100426.59
2022-10-14T07:36:13.590Z,100421.19
2022-10-14T07:38:44.150Z,100426.25
2022-10-14T07:41:20.765Z,100425.13
2022-10-14T07:43:51.870Z,100433.28
2022-10-14T07:46:29.508Z,100424.81
2022-10-14T07:49:02.833Z,100432.59
2022-10-14T07:51:31.221Z,100425.63
2022-10-14T07:54:00.943Z,100423.31
2022-10-14T07:56:29.328Z,100428.00
2022-10-14T07:58:59.295Z,100430.34
2022-10-14T08:01:27.214Z,100424.50
2022-10-14T08:03:54.808Z,100432.66
2022-10-14T08:06:22.781Z,100425.66
2022-10-14T08:08:50.651Z,100427.22
2022-10-14T08:11:23.702Z,100427.59
2022-10-14T08:13:52.966Z,100422.19
2022-10-14T08:16:28.558Z,100432.25
2022-10-14T08:18:59.252Z,100426.84
2022-10-14T08:21:27.599Z,100425.66
2022-10-14T08:23:55.180Z,100434.22
2022-10-14T08:26:53.942Z,100428.78
2022-10-14T08:29:24.840Z,100432.66
2022-10-14T08:31:55.258Z,100430.72
2022-10-14T08:34:24.447Z,100433.81
2022-10-14T08:36:52.520Z,100435.78
2022-10-14T08:39:21.292Z,100428.88
2022-10-14T08:42:13.172Z,100434.31
2022-10-14T08:44:51.834Z,100438.25
2022-10-14T08:47:30.668Z,100440.97
2022-10-14T08:50:05.528Z,100443.31
2022-10-14T08:52:53.720Z,100445.28
2022-10-14T08:55:39.375Z,100447.25
2022-10-14T08:58:20.991Z,100440.28
2022-10-14T09:00:52.967Z,100446.91
2022-10-14T09:03:33.401Z,100439.97
2022-10-14T09:06:22.323Z,100443.50
2022-10-14T09:08:50.664Z,100451.66
2022-10-14T09:11:24.362Z,100447.41
2022-10-14T09:14:02.741Z,100445.91
2022-10-14T09:16:38.805Z,100450.19
2022-10-14T09:19:35.127Z,100458.34
2022-10-14T09:22:02.775Z,100447.88
2022-10-14T09:24:35.927Z,100447.13
2022-10-14T09:27:22.356Z,100451.78
2022-10-14T09:30:04.803Z,100452.56
2022-10-14T09:32:41.003Z,100439.34
2022-10-14T09:35:29.524Z,100451.38
2022-10-14T09:37:57.196Z,100460.28
2022-10-14T09:40:40.907Z,100450.94
2022-10-14T09:43:11.422Z,100453.22
2022-10-14T09:45:47.790Z,100459.06
2022-10-14T09:48:32.453Z,100458.63
2022-10-14T09:51:11.500Z,100457.09
2022-10-14T09:53:53.449Z,100450.88
2022-10-14T09:56:49.511Z,100455.53
2022-10-14T09:59:22.503Z,100457.09
2022-10-14T10:01:57.829Z,100453.22
2022-10-14T10:04:32.486Z,100461.75
2022-10-14T10:07:05.926Z,100446.94
2022-10-14T10:09:34.791Z,100450.84
2022-10-14T10:12:25.413Z,100452.41
2022-10-14T10:15:04.972Z,100448.09
2022-10-14T10:17:36.103Z,100453.53
2022-10-14T10:20:33.606Z,100450.03
2022-10-14T10:23:26.703Z,100450.03
2022-10-14T10:25:54.414Z,100448.47
2022-10-14T10:28:33.197Z,100447.66
2022-10-14T10:31:19.624Z,100446.13
2022-10-14T10:34:33.176Z,100435.63
2022-10-14T10:37:26.241Z,100437.59
2022-10-14T10:40:31.291Z,100429.78
2022-10-14T10:43:34.682Z,100436.75
2022-10-14T10:46:53.047Z,100433.63
2022-10-14T10:52:56.657Z,100431.59
2022-10-14T10:56:19.911Z,100410.97
2022-10-14T10:58:59.467Z,100416.75
2022-10-14T11:02:14.091Z,100403.13
2022-10-14T11:05:16.085Z,100409.28
2022-10-14T11:08:40.844Z,100397.19
2022-10-14T11:11:58.608Z,100410.78
2022-10-14T11:15:05.553Z,100400.28
2022-10-14T11:18:26.941Z,100399.88
2022-10-14T11:21:25.399Z,100404.84
2022-10-14T11:24:31.112Z,100392.72
2022-10-14T11:27:27.906Z,100393.06
2022-10-14T11:30:23.835Z,100386.75
2022-10-14T11:33:15.415Z,100394.09
2022-10-14T11:36:00.795Z,100388.16
2022-10-14T11:39:02.244Z,100391.59
2022-10-14T11:42:01.694Z,100381.34
2022-10-14T11:44:40.459Z,100375.81
2022-10-14T11:47:34.349Z,100365.66
2022-10-14T11:50:22.778Z,100374.94
2022-10-14T11:52:59.760Z,100366.31
2022-10-14T11:55:35.635Z,100365.50
2022-10-14T11:58:14.612Z,100363.88
2022-10-14T12:01:03.019Z,100356.81
2022-10-14T12:03:48.524Z,100355.94
2022-10-14T12:07:08.916Z,100341.84
2022-10-14T12:09:47.714Z,100339.47
2022-10-14T12:12:20.062Z,100350.31
2022-10-14T12:14:59.242Z,100340.97
2022-10-14T12:17:38.433Z,100340.97
2022-10-14T12:20:44.824Z,100347.97
2022-10-14T12:23:29.096Z,100338.59
2022-10-14T12:26:24.627Z,100345.59
2022-10-14T12:28:54.180Z,100333.06
2022-10-14T12:31:28.401Z,100329.13
2022-10-14T12:34:13.913Z,100326.56
2022-10-14T12:36:50.863Z,100331.84
2022-10-14T12:39:18.294Z,100321.53
2022-10-14T12:41:59.604Z,100320.59
2022-10-14T12:44:56.341Z,100325.41
2022-10-14T12:47:36.217Z,100321.22
2022-10-14T12:50:34.538Z,100332.69
2022-10-14T12:53:15.903Z,100317.47
2022-10-14T12:56:01.884Z,100326.41
2022-10-14T12:58:37.440Z,100326.59
2022-10-14T13:01:22.018Z,100319.38
2022-10-14T13:04:08.439Z,100324.31
2022-10-14T13:06:42.395Z,100320.00
2022-10-14T13:09:13.918Z,100322.66
2022-10-14T13:11:42.704Z,100322.97
2022-10-14T13:14:27.352Z,100316.59
2022-10-14T13:16:58.449Z,100319.00
2022-10-14T13:19:34.998Z,100318.94
2022-10-14T13:22:05.685Z,100322.03
2022-10-14T13:24:39.890Z,100324.00
2022-10-14T13:27:22.971Z,100319.81
2022-10-14T13:30:06.514Z,100323.03
2022-10-14T13:32:47.263Z,100321.81
2022-10-14T13:35:29.984Z,100309.31
2022-10-14T13:38:28.544Z,100309.97
2022-10-14T13:40:58.253Z,100305.69
2022-10-14T13:43:43.496Z,100297.53
2022-10-14T13:46:39.319Z,100303.91
2022-10-14T13:49:20.467Z,100307.75
2022-10-14T13:52:05.765Z,100307.19
2022-10-14T13:54:33.755Z,100309.16
2022-10-14T13:57:53.977Z,100303.94
2022-10-14T14:00:40.647Z,100301.63
2022-10-14T14:03:43.369Z,100301.38
2022-10-14T14:06:18.133Z,100298.69
2022-10-14T14:08:59.919Z,100298.97
2022-10-14T14:11:35.541Z,100302.78
2022-10-14T14:14:29.470Z,100301.31
2022-10-14T14:16:59.773Z,100303.56
2022-10-14T14:19:29.873Z,100306.06
2022-10-14T14:22:23.412Z,100301.78
2022-10-14T14:24:52.590Z,100312.44
2022-10-14T14:27:24.024Z,100306.06
2022-10-14T14:29:53.930Z,100313.94
2022-10-14T14:32:28.907Z,100310.75
2022-10-14T14:34:57.001Z,100311.09
2022-10-14T14:40:27.444Z,100303.50
2022-10-14T14:43:00.614Z,100311.31
2022-10-14T14:45:32.421Z,100303.97
2022-10-14T14:48:06.886Z,100308.09
2022-10-14T14:50:38.863Z,100305.69
2022-10-14T14:53:15.359Z,100303.19
2022-10-14T14:55:54.776Z,100312.97
2022-10-14T14:58:28.518Z,100313.44
2022-10-14T15:00:57.158Z,100311.44
2022-10-14T15:03:27.559Z,100312.03
2022-10-14T15:06:05.082Z,100305.72
2022-10-14T15:08:39.166Z,100305.72
2022-10-14T15:11:06.981Z,100299.75
2022-10-14T15:13:40.850Z,100299.09
2022-10-14T15:16:08.637Z,100303.19
2022-10-14T15:18:37.876Z,100294.78
2022-10-14T15:21:11.695Z,100299.06
2022-10-14T15:23:53.316Z,100300.63
2022-10-14T15:26:36.537Z,100296.59
2022-10-14T15:32:04.990Z,100303.38
2022-10-14T15:34:35.717Z,100309.03
2022-10-14T15:37:03.214Z,100301.50
2022-10-14T15:39:31.020Z,100303.81
2022-10-14T15:41:58.557Z,100301.31
2022-10-14T15:44:27.605Z,100306.53
2022-10-14T15:47:15.797Z,100303.09
2022-10-14T15:49:45.720Z,100300.78
2022-10-14T15:52:19.409Z,100306.56
2022-10-14T15:54:50.842Z,100306.81
2022-10-14T15:57:18.344Z,100307.81
2022-10-14T15:59:49.203Z,100314.19
2022-10-14T16:02:32.855Z,100309.25
2022-10-14T16:05:19.222Z,100318.66
2022-10-14T16:07:48.449Z,100321.53
2022-10-14T16:10:21.699Z,100323.16
2022-10-14T16:12:50.264Z,100330.59
2022-10-14T16:15:46.574Z,100324.44
2022-10-14T16:18:14.796Z,100328.72
2022-10-14T16:20:42.331Z,100324.47
2022-10-14T16:23:23.211Z,100329.16
2022-10-14T16:25:53.573Z,100326.06
2022-10-14T16:28:21.786Z,100331.09
2022-10-14T16:30:50.222Z,100328.78
2022-10-14T16:33:21.605Z,100338.09
2022-10-14T16:35:56.542Z,100337.66
2022-10-14T16:38:24.773Z,100335.34
2022-10-14T16:40:57.868Z,100337.63
2022-10-14T16:43:26.932Z,100338.75
2022-10-14T16:45:59.429Z,100338.75
2022-10-14T16:48:28.163Z,100339.88
2022-10-14T16:50:56.520Z,100343.72
2022-10-14T16:53:41.446Z,100348.75
2022-10-14T16:56:32.695Z,100355.31
2022-10-14T16:59:01.832Z,100348.66
2022-10-14T17:01:30.475Z,100352.91
2022-10-14T17:03:58.675Z,100362.53
2022-10-14T17:06:27.268Z,100362.91
2022-10-14T17:08:55.187Z,100360.56
2022-10-14T17:11:23.064Z,100361.25
2022-10-14T17:13:54.832Z,100358.16
2022-10-14T17:16:22.985Z,100358.91
2022-10-14T17:18:50.748Z,100365.88
2022-10-14T17:21:18.549Z,100368.13
2022-10-14T17:23:47.119Z,100365.03
2022-10-14T17:26:18.592Z,100370.06
2022-10-14T17:28:47.266Z,100369.22
2022-10-14T17:31:19.475Z,100368.81
2022-10-14T17:33:47.426Z,100369.56
2022-10-14T17:36:20.608Z,100373.44
2022-10-14T17:38:50.711Z,100378.84
2022-10-14T17:41:19.904Z,100375.72
2022-10-14T17:43:50.459Z,100377.28
2022-10-14T17:46:21.297Z,100377.28
2022-10-14T17:48:52.247Z,100381.13
2022-10-14T17:51:24.790Z,100391.22
2022-10-14T17:54:02.650Z,100386.19
2022-10-14T17:56:32.554Z,100383.91
2022-10-14T17:59:03.813Z,100389.25
2022-10-14T18:01:37.814Z,100385.38
2022-10-14T18:04:18.210Z,100392.75
2022-10-14T18:06:47.613Z,100398.16
2022-10-14T18:09:15.218Z,100393.88
2022-10-14T18:14:31.169Z,100409.72
2022-10-14T18:16:59.431Z,100397.69
2022-10-14T18:19:27.749Z,100403.09
2022-10-14T18:21:55.670Z,100416.59
2022-10-14T18:24:23.616Z,100406.13
2022-10-14T18:26:53.297Z,100411.09
2022-10-14T18:29:21.171Z,100411.44
2022-10-14T18:34:25.525Z,100417.56
2022-10-14T18:36:53.030Z,100418.66
2022-10-14T18:39:20.602Z,100423.28
2022-10-14T18:41:48.939Z,100417.03
2022-10-14T18:44:16.745Z,100419.38
2022-10-14T18:46:45.393Z,100416.22
2022-10-14T18:49:13.516Z,100420.44
2022-10-14T18:51:42.062Z,100425.00
2022-10-14T18:54:18.804Z,100422.97
2022-10-14T18:56:47.604Z,100424.06
2022-10-14T18:59:19.285Z,100433.34
2022-10-14T19:01:53.243Z,100428.28
2022-10-14T19:04:27.611Z,100439.06
2022-10-14T19:06:58.657Z,100435.97
2022-10-14T19:09:29.697Z,100446.78
2022-10-14T19:11:59.223Z,100442.09
2022-10-14T19:14:28.729Z,100440.13
2022-10-14T19:16:56.393Z,100441.25
2022-10-14T19:19:24.182Z,100437.03
2022-10-14T19:21:54.506Z,100438.88
2022-10-14T19:24:22.719Z,100438.47
2022-10-14T19:26:50.518Z,100436.50
2022-10-14T19:29:18.272Z,100444.19
2022-10-14T19:31:45.992Z,100448.06
2022-10-14T19:34:16.187Z,100458.88
2022-10-14T19:36:45.409Z,100451.50
2022-10-14T19:39:16.693Z,100453.00
2022-10-14T19:41:46.720Z,100456.47
2022-10-14T19:44:16.488Z,100454.53
2022-10-14T19:46:44.908Z,100451.81
2022-10-14T19:49:15.223Z,100451.38
2022-10-14T19:51:43.842Z,100451.81
2022-10-14T19:54:13.023Z,100450.25
2022-10-14T19:56:41.098Z,100452.53
2022-10-14T19:59:09.696Z,100448.22
2022-10-14T20:01:37.470Z,100441.63
2022-10-14T20:04:05.192Z,100445.47
2022-10-14T20:06:35.831Z,100454.72
2022-10-14T20:09:05.411Z,100449.31
2022-10-14T20:11:34.176Z,100450.84
2022-10-14T20:14:09.313Z,100452.31
2022-10-14T20:16:38.129Z,100450.00
2022-10-14T20:19:15.308Z,100457.31
2022-10-14T20:21:43.375Z,100451.16
2022-10-14T20:24:12.838Z,100462.72
2022-10-14T20:26:41.527Z,100456.16
2022-10-14T20:29:09.441Z,100455.34
2022-10-14T20:31:40.956Z,100454.94
2022-10-14T20:34:18.448Z,100457.63
2022-10-14T20:36:54.669Z,100455.72
2022-10-14T20:39:28.816Z,100462.63
2022-10-14T20:42:07.666Z,100458.34
2022-10-14T20:47:13.589Z,100467.22
2022-10-14T20:49:41.447Z,100466.78
2022-10-14T20:52:12.204Z,100459.06
2022-10-14T20:54:42.835Z,100460.97
2022-10-14T20:57:13.734Z,100461.31
2022-10-14T20:59:46.787Z,100450.50
2022-10-14T21:02:23.423Z,100459.72
2022-10-14T21:04:57.028Z,100451.56
2022-10-14T21:07:28.069Z,100449.59
2022-10-14T21:10:01.224Z,100444.91
2022-10-14T21:12:33.707Z,100447.97
2022-10-14T21:15:04.689Z,100439.81
2022-10-14T21:17:32.655Z,100445.94
2022-10-14T21:20:00.271Z,100440.13
2022-10-14T21:22:28.615Z,100437.78
2022-10-14T21:24:56.411Z,100443.19
2022-10-14T21:27:25.539Z,100440.47
2022-10-14T21:32:28.159Z,100431.94
2022-10-14T21:34:55.871Z,100434.22
2022-10-14T21:37:23.680Z,100435.34
2022-10-14T21:39:51.340Z,100436.13
2022-10-14T21:42:19.134Z,100440.75
2022-10-14T21:44:46.638Z,100432.28
2022-10-14T21:47:14.232Z,100431.94
2022-10-14T21:49:41.964Z,100435.06
2022-10-14T21:52:09.993Z,100433.59
2022-10-14T21:54:37.623Z,100431.66
2022-10-14T21:57:05.369Z,100430.88
2022-10-14T21:59:32.842Z,100427.78
2022-10-14T22:02:00.302Z,100421.25
2022-10-14T22:04:28.231Z,100422.09
2022-10-14T22:06:55.686Z,100420.97
2022-10-14T22:09:23.290Z,100427.13
2022-10-14T22:11:54.492Z,100425.59
2022-10-14T22:14:21.999Z,100418.25
2022-10-14T22:16:49.739Z,100422.94
2022-10-14T22:19:17.465Z,100424.06
2022-10-14T22:21:46.426Z,100420.25
2022-10-14T22:24:14.327Z,100423.34
2022-10-14T22:26:42.941Z,100428.34
2022-10-14T22:29:16.105Z,100427.13
2022-10-14T22:31:45.094Z,100418.97
2022-10-14T22:34:16.485Z,100422.03
2022-10-14T22:36:44.857Z,100423.97
2022-10-14T22:39:16.006Z,100413.16
2022-10-14T22:41:43.510Z,100412.34
2022-10-14T22:44:11.859Z,100421.63
2022-10-14T22:46:40.792Z,100419.28
2022-10-14T22:49:08.440Z,100417.00
2022-10-14T22:51:43.011Z,100420.13
2022-10-14T22:54:11.477Z,100416.28
2022-10-14T22:56:39.597Z,100414.00
2022-10-14T22:59:12.074Z,100414.44
2022-10-14T23:01:42.117Z,100416.31
2022-10-14T23:04:10.818Z,100415.56
2022-10-14T23:06:40.279Z,100417.19
2022-10-14T23:09:07.978Z,100413.69
2022-10-14T23:11:35.433Z,100415.97
2022-10-14T23:14:07.095Z,100415.56
2022-10-14T23:16:36.061Z,100405.13
2022-10-14T23:19:03.654Z,100407.81
2022-10-14T23:21:34.581Z,100404.34
2022-10-14T23:24:07.356Z,100411.28
2022-10-14T23:26:35.670Z,100412.44
2022-10-14T23:29:11.545Z,100419.38
2022-10-14T23:31:40.830Z,100410.16
2022-10-14T23:34:12.286Z,100413.56
2022-10-14T23:36:40.660Z,100418.94
2022-10-14T23:39:08.621Z,100417.00
2022-10-14T23:41:36.539Z,100413.16
2022-10-14T23:44:05.683Z,100415.50
2022-10-14T23:46:33.368Z,100406.63
2022-10-14T23:49:07.711Z,100415.50
2022-10-14T23:51:42.643Z,100415.16
2022-10-14T23:54:10.672Z,100411.66
2022-10-14T23:56:38.243Z,100410.88
2022-10-14T23:59:05.684Z,100412.81
